sensor_id;sensor_type;location;lat;lon;timestamp;pressure;altitude;pressure_sealevel;temperature;humidity
39357;BME280;25077;50.302;18.996;2022-09-09T00:01:50;97786.72;;;15.65;81.82
39357;BME280;25077;50.302;18.996;2022-09-09T00:04:58;97787.56;;;15.62;83.35
39357;BME280;25077;50.302;18.996;2022-09-09T00:08:02;97789.50;;;15.62;81.57
39357;BME280;25077;50.302;18.996;2022-09-09T00:11:09;97791.06;;;15.59;82.28
39357;BME280;25077;50.302;18.996;2022-09-09T00:14:19;97793.44;;;15.57;84.03
39357;BME280;25077;50.302;18.996;2022-09-09T00:17:32;97786.84;;;15.55;83.27
39357;BME280;25077;50.302;18.996;2022-09-09T00:20:44;97788.81;;;15.50;84.36
39357;BME280;25077;50.302;18.996;2022-09-09T00:23:50;97789.63;;;15.47;83.76
39357;BME280;25077;50.302;18.996;2022-09-09T00:26:55;97785.34;;;15.46;83.07
39357;BME280;25077;50.302;18.996;2022-09-09T00:30:13;97789.63;;;15.47;82.50
39357;BME280;25077;50.302;18.996;2022-09-09T00:33:19;97787.72;;;15.44;82.18
39357;BME280;25077;50.302;18.996;2022-09-09T00:36:24;97798.22;;;15.42;83.01
39357;BME280;25077;50.302;18.996;2022-09-09T00:39:33;97789.66;;;15.44;82.69
39357;BME280;25077;50.302;18.996;2022-09-09T00:47:12;97784.22;;;15.40;83.40
39357;BME280;25077;50.302;18.996;2022-09-09T00:50:36;97790.09;;;15.39;82.41
39357;BME280;25077;50.302;18.996;2022-09-09T00:54:01;97797.50;;;15.38;82.90
39357;BME280;25077;50.302;18.996;2022-09-09T00:57:15;97801.03;;;15.35;83.50
39357;BME280;25077;50.302;18.996;2022-09-09T01:00:22;97805.34;;;15.29;83.52
39357;BME280;25077;50.302;18.996;2022-09-09T01:03:33;97804.56;;;15.29;83.55
39357;BME280;25077;50.302;18.996;2022-09-09T01:06:37;97810.03;;;15.29;84.23
39357;BME280;25077;50.302;18.996;2022-09-09T01:09:48;97813.53;;;15.25;84.40
39357;BME280;25077;50.302;18.996;2022-09-09T01:17:22;97826.41;;;15.25;83.82
39357;BME280;25077;50.302;18.996;2022-09-09T01:20:45;97817.84;;;15.27;83.01
39357;BME280;25077;50.302;18.996;2022-09-09T01:24:04;97829.50;;;15.31;83.42
39357;BME280;25077;50.302;18.996;2022-09-09T01:27:30;97841.16;;;15.35;83.11
39357;BME280;25077;50.302;18.996;2022-09-09T01:30:37;97830.25;;;15.38;82.56
39357;BME280;25077;50.302;18.996;2022-09-09T01:33:40;97825.56;;;15.39;83.20
39357;BME280;25077;50.302;18.996;2022-09-09T01:36:44;97831.84;;;15.29;84.77
39357;BME280;25077;50.302;18.996;2022-09-09T01:39:48;97834.22;;;15.27;84.16
39357;BME280;25077;50.302;18.996;2022-09-09T01:47:21;97849.06;;;15.18;84.20
39357;BME280;25077;50.302;18.996;2022-09-09T01:50:34;97845.97;;;15.16;84.91
39357;BME280;25077;50.302;18.996;2022-09-09T01:53:37;97842.06;;;15.14;84.35
39357;BME280;25077;50.302;18.996;2022-09-09T01:56:47;97838.97;;;15.15;84.02
39357;BME280;25077;50.302;18.996;2022-09-09T02:04:31;97848.34;;;15.07;85.45
39357;BME280;25077;50.302;18.996;2022-09-09T02:07:41;97852.25;;;15.06;84.83
39357;BME280;25077;50.302;18.996;2022-09-09T02:11:00;97846.03;;;15.02;86.12
39357;BME280;25077;50.302;18.996;2022-09-09T02:14:22;97846.03;;;15.02;85.15
39357;BME280;25077;50.302;18.996;2022-09-09T02:17:28;97850.72;;;15.02;83.86
39357;BME280;25077;50.302;18.996;2022-09-09T02:20:47;97855.38;;;14.97;83.96
39357;BME280;25077;50.302;18.996;2022-09-09T02:23:50;97856.56;;;14.93;84.45
39357;BME280;25077;50.302;18.996;2022-09-09T02:26:56;97862.41;;;14.95;84.04
39357;BME280;25077;50.302;18.996;2022-09-09T02:34:36;97866.75;;;14.82;85.28
39357;BME280;25077;50.302;18.996;2022-09-09T02:37:42;97874.16;;;14.78;84.45
39357;BME280;25077;50.302;18.996;2022-09-09T02:40:46;97874.94;;;14.74;85.08
39357;BME280;25077;50.302;18.996;2022-09-09T02:43:49;97874.19;;;14.70;84.87
39357;BME280;25077;50.302;18.996;2022-09-09T02:47:09;97870.28;;;14.68;84.46
39357;BME280;25077;50.302;18.996;2022-09-09T02:50:17;97880.44;;;14.64;83.93
39357;BME280;25077;50.302;18.996;2022-09-09T02:53:26;97885.09;;;14.63;84.28
39357;BME280;25077;50.302;18.996;2022-09-09T02:56:36;97885.13;;;14.60;84.05
39357;BME280;25077;50.302;18.996;2022-09-09T03:04:08;97886.69;;;14.50;84.44
39357;BME280;25077;50.302;18.996;2022-09-09T03:07:10;97880.47;;;14.46;83.88
39357;BME280;25077;50.302;18.996;2022-09-09T03:10:14;97884.38;;;14.45;83.52
39357;BME280;25077;50.302;18.996;2022-09-09T03:13:16;97893.72;;;14.44;83.39
39357;BME280;25077;50.302;18.996;2022-09-09T03:16:20;97893.34;;;14.42;83.37
39357;BME280;25077;50.302;18.996;2022-09-09T03:19:24;97895.28;;;14.38;83.95
39357;BME280;25077;50.302;18.996;2022-09-09T03:22:26;97900.75;;;14.38;83.42
39357;BME280;25077;50.302;18.996;2022-09-09T03:25:33;97902.69;;;14.37;82.73
39357;BME280;25077;50.302;18.996;2022-09-09T03:33:03;97896.06;;;14.35;82.73
39357;BME280;25077;50.302;18.996;2022-09-09T03:36:08;97906.19;;;14.34;82.76
39357;BME280;25077;50.302;18.996;2022-09-09T03:39:11;97909.69;;;14.35;82.27
39357;BME280;25077;50.302;18.996;2022-09-09T03:42:16;97910.50;;;14.35;81.79
39357;BME280;25077;50.302;18.996;2022-09-09T03:49:48;97922.94;;;14.33;81.92
39357;BME280;25077;50.302;18.996;2022-09-09T03:52:50;97922.56;;;14.31;81.49
39357;BME280;25077;50.302;18.996;2022-09-09T03:55:57;97922.56;;;14.31;81.60
39357;BME280;25077;50.302;18.996;2022-09-09T03:59:02;97917.88;;;14.28;81.71
39357;BME280;25077;50.302;18.996;2022-09-09T04:02:05;97916.72;;;14.22;82.64
39357;BME280;25077;50.302;18.996;2022-09-09T04:05:07;97913.97;;;14.18;81.70
39357;BME280;25077;50.302;18.996;2022-09-09T04:08:09;97913.59;;;14.12;81.86
39357;BME280;25077;50.302;18.996;2022-09-09T04:11:12;97917.88;;;14.06;82.72
39357;BME280;25077;50.302;18.996;2022-09-09T04:18:44;97919.47;;;13.97;83.47
39357;BME280;25077;50.302;18.996;2022-09-09T04:21:48;97923.72;;;13.98;82.33
39357;BME280;25077;50.302;18.996;2022-09-09T04:24:52;97926.84;;;13.96;82.16
39357;BME280;25077;50.302;18.996;2022-09-09T04:27:55;97933.44;;;13.95;82.56
39357;BME280;25077;50.302;18.996;2022-09-09T04:31:04;97932.66;;;13.94;82.14
39357;BME280;25077;50.302;18.996;2022-09-09T04:34:09;97929.94;;;13.91;82.73
39357;BME280;25077;50.302;18.996;2022-09-09T04:37:11;97932.66;;;13.91;82.10
39357;BME280;25077;50.302;18.996;2022-09-09T04:40:13;97929.94;;;13.91;82.54
39357;BME280;25077;50.302;18.996;2022-09-09T04:47:44;97933.81;;;13.90;82.37
39357;BME280;25077;50.302;18.996;2022-09-09T04:50:55;97931.88;;;13.94;81.84
39357;BME280;25077;50.302;18.996;2022-09-09T04:53:57;97936.56;;;13.97;82.11
39357;BME280;25077;50.302;18.996;2022-09-09T04:57:00;97944.34;;;14.02;81.96
39357;BME280;25077;50.302;18.996;2022-09-09T05:04:36;97956.78;;;14.10;81.32
39357;BME280;25077;50.302;18.996;2022-09-09T05:07:39;97945.91;;;14.10;81.03
39357;BME280;25077;50.302;18.996;2022-09-09T05:10:42;97947.84;;;14.10;81.22
39357;BME280;25077;50.302;18.996;2022-09-09T05:13:46;97947.44;;;14.11;81.76
39357;BME280;25077;50.302;18.996;2022-09-09T05:16:49;97954.44;;;14.12;81.48
39357;BME280;25077;50.302;18.996;2022-09-09T05:19:52;97947.47;;;14.15;81.25
39357;BME280;25077;50.302;18.996;2022-09-09T05:22:56;97959.50;;;14.17;82.26
39357;BME280;25077;50.302;18.996;2022-09-09T05:26:01;97960.28;;;14.22;81.57
39357;BME280;25077;50.302;18.996;2022-09-09T05:33:31;97964.59;;;14.30;81.93
39357;BME280;25077;50.302;18.996;2022-09-09T05:36:34;97965.75;;;14.36;82.24
39357;BME280;25077;50.302;18.996;2022-09-09T05:39:38;97972.34;;;14.42;82.08
39357;BME280;25077;50.302;18.996;2022-09-09T05:42:40;97970.00;;;14.47;81.86
39357;BME280;25077;50.302;18.996;2022-09-09T05:50:10;97969.59;;;14.56;82.32
39357;BME280;25077;50.302;18.996;2022-09-09T05:53:14;97971.94;;;14.61;82.19
39357;BME280;25077;50.302;18.996;2022-09-09T05:56:20;97975.84;;;14.64;82.02
39357;BME280;25077;50.302;18.996;2022-09-09T05:59:24;97980.88;;;14.65;82.52
39357;BME280;25077;50.302;18.996;2022-09-09T06:02:29;97977.75;;;14.70;82.53
39357;BME280;25077;50.302;18.996;2022-09-09T06:05:32;97978.50;;;14.74;82.60
39357;BME280;25077;50.302;18.996;2022-09-09T06:08:38;97972.28;;;14.81;82.59
39357;BME280;25077;50.302;18.996;2022-09-09T06:11:43;97975.41;;;14.87;82.63
39357;BME280;25077;50.302;18.996;2022-09-09T06:19:16;97981.59;;;15.02;82.17
39357;BME280;25077;50.302;18.996;2022-09-09T06:22:18;97975.34;;;15.08;82.00
39357;BME280;25077;50.302;18.996;2022-09-09T06:25:20;97969.88;;;15.15;81.91
39357;BME280;25077;50.302;18.996;2022-09-09T06:28:24;97982.31;;;15.23;81.22
39357;BME280;25077;50.302;18.996;2022-09-09T06:31:27;97981.88;;;15.32;81.05
39357;BME280;25077;50.302;18.996;2022-09-09T06:34:32;97983.81;;;15.39;80.97
39357;BME280;25077;50.302;18.996;2022-09-09T06:37:35;97979.09;;;15.46;80.83
39357;BME280;25077;50.302;18.996;2022-09-09T06:40:37;97981.38;;;15.55;80.56
39357;BME280;25077;50.302;18.996;2022-09-09T06:48:21;97974.28;;;15.68;78.68
39357;BME280;25077;50.302;18.996;2022-09-09T06:51:25;97973.44;;;15.78;78.30
39357;BME280;25077;50.302;18.996;2022-09-09T06:54:27;97977.28;;;15.88;77.94
39357;BME280;25077;50.302;18.996;2022-09-09T06:57:30;97974.88;;;15.94;77.77
39357;BME280;25077;50.302;18.996;2022-09-09T07:05:01;97974.84;;;16.08;77.68
39357;BME280;25077;50.302;18.996;2022-09-09T07:08:03;97965.00;;;16.18;76.74
39357;BME280;25077;50.302;18.996;2022-09-09T07:11:07;97963.34;;;16.27;75.87
39357;BME280;25077;50.302;18.996;2022-09-09T07:14:12;97965.66;;;16.32;76.00
39357;BME280;25077;50.302;18.996;2022-09-09T07:17:15;97962.88;;;16.40;75.84
39357;BME280;25077;50.302;18.996;2022-09-09T07:20:18;97964.34;;;16.48;75.82
39357;BME280;25077;50.302;18.996;2022-09-09T07:23:21;97969.75;;;16.55;75.76
39357;BME280;25077;50.302;18.996;2022-09-09T07:26:25;97960.66;;;16.65;75.69
39357;BME280;25077;50.302;18.996;2022-09-09T07:33:55;97955.84;;;16.80;74.82
39357;BME280;25077;50.302;18.996;2022-09-09T07:36:59;97942.06;;;16.91;75.27
39357;BME280;25077;50.302;18.996;2022-09-09T07:40:01;97966.97;;;17.00;73.99
39357;BME280;25077;50.302;18.996;2022-09-09T07:43:06;97957.53;;;17.04;73.29
39357;BME280;25077;50.302;18.996;2022-09-09T07:50:36;97971.38;;;17.24;72.80
39357;BME280;25077;50.302;18.996;2022-09-09T07:53:40;97970.84;;;17.36;72.34
39357;BME280;25077;50.302;18.996;2022-09-09T07:56:42;97973.81;;;17.49;72.51
39357;BME280;25077;50.302;18.996;2022-09-09T07:59:46;97990.09;;;17.60;72.14
39357;BME280;25077;50.302;18.996;2022-09-09T08:02:48;97990.25;;;17.76;71.14
39357;BME280;25077;50.302;18.996;2022-09-09T08:05:50;97994.34;;;17.92;70.82
39357;BME280;25077;50.302;18.996;2022-09-09T08:08:54;97985.94;;;18.06;70.22
39357;BME280;25077;50.302;18.996;2022-09-09T08:11:57;97980.19;;;18.24;69.66
39357;BME280;25077;50.302;18.996;2022-09-09T08:19:28;97986.41;;;18.71;68.95
39357;BME280;25077;50.302;18.996;2022-09-09T08:22:31;97994.06;;;18.83;68.26
39357;BME280;25077;50.302;18.996;2022-09-09T08:25:35;97993.09;;;18.93;67.37
39357;BME280;25077;50.302;18.996;2022-09-09T08:28:37;97985.09;;;19.03;67.63
39357;BME280;25077;50.302;18.996;2022-09-09T08:36:10;97989.31;;;19.47;67.39
39357;BME280;25077;50.302;18.996;2022-09-09T08:39:16;97990.06;;;19.67;67.23
39357;BME280;25077;50.302;18.996;2022-09-09T08:42:36;97983.31;;;19.88;65.78
39357;BME280;25077;50.302;18.996;2022-09-09T08:45:49;97983.69;;;20.07;65.76
39357;BME280;25077;50.302;18.996;2022-09-09T08:49:01;97988.84;;;20.21;65.08
39357;BME280;25077;50.302;18.996;2022-09-09T08:52:14;97995.63;;;20.16;63.52
39357;BME280;25077;50.302;18.996;2022-09-09T08:55:29;97989.00;;;20.14;62.69
39357;BME280;25077;50.302;18.996;2022-09-09T08:58:47;97986.34;;;20.26;64.06
39357;BME280;25077;50.302;18.996;2022-09-09T09:06:35;97971.66;;;20.66;63.27
39357;BME280;25077;50.302;18.996;2022-09-09T09:09:50;97985.47;;;20.78;62.88
39357;BME280;25077;50.302;18.996;2022-09-09T09:13:00;97983.19;;;20.90;62.67
39357;BME280;25077;50.302;18.996;2022-09-09T09:16:14;97978.66;;;20.83;61.53
39357;BME280;25077;50.302;18.996;2022-09-09T09:19:19;97987.88;;;20.76;61.04
39357;BME280;25077;50.302;18.996;2022-09-09T09:22:27;97978.78;;;20.63;60.73
39357;BME280;25077;50.302;18.996;2022-09-09T09:25:39;97972.19;;;20.61;60.59
39357;BME280;25077;50.302;18.996;2022-09-09T09:28:44;97980.56;;;20.70;60.76
39357;BME280;25077;50.302;18.996;2022-09-09T09:36:20;97983.69;;;20.72;57.92
39357;BME280;25077;50.302;18.996;2022-09-09T09:39:26;97981.25;;;20.74;58.86
39357;BME280;25077;50.302;18.996;2022-09-09T09:42:32;97968.22;;;20.91;59.26
39357;BME280;25077;50.302;18.996;2022-09-09T09:45:42;97974.00;;;21.09;58.02
39357;BME280;25077;50.302;18.996;2022-09-09T09:48:57;97969.59;;;21.28;58.19
39357;BME280;25077;50.302;18.996;2022-09-09T09:52:03;97968.97;;;21.49;57.60
39357;BME280;25077;50.302;18.996;2022-09-09T09:55:13;97980.19;;;21.42;56.52
39357;BME280;25077;50.302;18.996;2022-09-09T09:58:19;97974.78;;;21.39;56.26
39357;BME280;25077;50.302;18.996;2022-09-09T10:05:55;97990.25;;;21.20;55.95
39357;BME280;25077;50.302;18.996;2022-09-09T10:08:59;97982.50;;;21.15;55.13
39357;BME280;25077;50.302;18.996;2022-09-09T10:12:11;97974.50;;;21.20;56.10
39357;BME280;25077;50.302;18.996;2022-09-09T10:15:30;97974.13;;;21.47;55.39
39357;BME280;25077;50.302;18.996;2022-09-09T10:18:45;97977.47;;;21.68;54.56
39357;BME280;25077;50.302;18.996;2022-09-09T10:21:57;97984.00;;;21.74;51.64
39357;BME280;25077;50.302;18.996;2022-09-09T10:25:26;97989.69;;;21.67;51.07
39357;BME280;25077;50.302;18.996;2022-09-09T10:28:41;97991.25;;;21.68;53.24
39357;BME280;25077;50.302;18.996;2022-09-09T10:36:19;97995.66;;;21.78;54.39
39357;BME280;25077;50.302;18.996;2022-09-09T10:39:33;98010.78;;;21.86;52.20
39357;BME280;25077;50.302;18.996;2022-09-09T10:42:38;98012.09;;;21.69;52.77
39357;BME280;25077;50.302;18.996;2022-09-09T10:45:48;98004.00;;;21.49;52.69
39357;BME280;25077;50.302;18.996;2022-09-09T10:49:04;97999.63;;;21.51;53.27
39357;BME280;25077;50.302;18.996;2022-09-09T10:52:13;97999.41;;;21.58;53.60
39357;BME280;25077;50.302;18.996;2022-09-09T10:55:18;97997.41;;;21.72;54.03
39357;BME280;25077;50.302;18.996;2022-09-09T10:58:25;97995.25;;;21.92;53.85
39357;BME280;25077;50.302;18.996;2022-09-09T11:05:59;97993.97;;;23.26;51.47
39357;BME280;25077;50.302;18.996;2022-09-09T11:09:03;97997.44;;;24.02;50.23
39357;BME280;25077;50.302;18.996;2022-09-09T11:12:09;98001.16;;;24.48;46.95
39357;BME280;25077;50.302;18.996;2022-09-09T11:15:20;98003.69;;;24.83;46.17
39357;BME280;25077;50.302;18.996;2022-09-09T11:18:23;97999.06;;;25.07;47.29
39357;BME280;25077;50.302;18.996;2022-09-09T11:21:28;97995.50;;;25.07;41.59
39357;BME280;25077;50.302;18.996;2022-09-09T11:24:35;98000.75;;;25.23;45.52
39357;BME280;25077;50.302;18.996;2022-09-09T11:27:52;97999.69;;;25.81;41.77
39357;BME280;25077;50.302;18.996;2022-09-09T11:35:33;98004.81;;;26.97;40.04
39357;BME280;25077;50.302;18.996;2022-09-09T11:38:45;97995.97;;;26.84;40.84
39357;BME280;25077;50.302;18.996;2022-09-09T11:41:47;97982.75;;;26.78;42.29
39357;BME280;25077;50.302;18.996;2022-09-09T11:44:49;97991.63;;;27.21;42.39
39357;BME280;25077;50.302;18.996;2022-09-09T11:47:53;97982.38;;;27.69;40.74
39357;BME280;25077;50.302;18.996;2022-09-09T11:51:02;97993.38;;;27.78;39.46
39357;BME280;25077;50.302;18.996;2022-09-09T11:54:26;97982.34;;;28.33;33.67
39357;BME280;25077;50.302;18.996;2022-09-09T11:57:32;97982.22;;;29.04;39.87
39357;BME280;25077;50.302;18.996;2022-09-09T12:05:06;97977.22;;;29.91;36.09
39357;BME280;25077;50.302;18.996;2022-09-09T12:08:16;97981.63;;;29.72;33.39
39357;BME280;25077;50.302;18.996;2022-09-09T12:11:25;97981.91;;;29.74;35.36
39357;BME280;25077;50.302;18.996;2022-09-09T12:14:35;97984.75;;;29.54;33.80
39357;BME280;25077;50.302;18.996;2022-09-09T12:22:07;97985.31;;;28.65;34.89
39357;BME280;25077;50.302;18.996;2022-09-09T12:25:22;97980.59;;;28.36;33.25
39357;BME280;25077;50.302;18.996;2022-09-09T12:28:44;97987.06;;;28.27;33.49
39357;BME280;25077;50.302;18.996;2022-09-09T12:31:53;97979.09;;;27.85;33.60
39357;BME280;25077;50.302;18.996;2022-09-09T12:35:00;97990.16;;;27.35;34.48
39357;BME280;25077;50.302;18.996;2022-09-09T12:38:05;97982.50;;;27.06;35.28
39357;BME280;25077;50.302;18.996;2022-09-09T12:41:21;97984.72;;;27.02;35.14
39357;BME280;25077;50.302;18.996;2022-09-09T12:44:25;97983.72;;;26.90;36.32
39357;BME280;25077;50.302;18.996;2022-09-09T12:51:55;97981.44;;;27.03;36.90
39357;BME280;25077;50.302;18.996;2022-09-09T12:55:00;97981.31;;;27.66;35.88
39357;BME280;25077;50.302;18.996;2022-09-09T12:58:05;97977.56;;;27.84;35.37
39357;BME280;25077;50.302;18.996;2022-09-09T13:01:21;97979.97;;;27.76;34.43
39357;BME280;25077;50.302;18.996;2022-09-09T13:04:23;97979.03;;;27.35;35.44
39357;BME280;25077;50.302;18.996;2022-09-09T13:07:25;97978.81;;;27.39;35.41
39357;BME280;25077;50.302;18.996;2022-09-09T13:10:29;97976.13;;;27.44;33.78
39357;BME280;25077;50.302;18.996;2022-09-09T13:13:36;97978.63;;;27.27;35.64
39357;BME280;25077;50.302;18.996;2022-09-09T13:21:05;97960.78;;;27.34;36.00
39357;BME280;25077;50.302;18.996;2022-09-09T13:24:26;97958.31;;;27.36;33.73
39357;BME280;25077;50.302;18.996;2022-09-09T13:27:31;97958.78;;;26.81;34.76
39357;BME280;25077;50.302;18.996;2022-09-09T13:30:37;97960.22;;;26.28;35.29
39357;BME280;25077;50.302;18.996;2022-09-09T13:33:41;97950.22;;;25.89;36.23
39357;BME280;25077;50.302;18.996;2022-09-09T13:36:47;97949.38;;;25.73;36.17
39357;BME280;25077;50.302;18.996;2022-09-09T13:39:51;97944.44;;;25.68;36.38
39357;BME280;25077;50.302;18.996;2022-09-09T13:42:56;97939.84;;;25.65;36.45
39357;BME280;25077;50.302;18.996;2022-09-09T13:50:27;97940.44;;;25.69;36.15
39357;BME280;25077;50.302;18.996;2022-09-09T13:53:30;97934.88;;;25.69;35.64
39357;BME280;25077;50.302;18.996;2022-09-09T13:56:33;97928.91;;;25.62;36.06
39357;BME280;25077;50.302;18.996;2022-09-09T13:59:35;97924.59;;;25.70;36.18
39357;BME280;25077;50.302;18.996;2022-09-09T14:07:09;97919.56;;;25.59;35.71
39357;BME280;25077;50.302;18.996;2022-09-09T14:10:13;97919.88;;;25.52;35.61
39357;BME280;25077;50.302;18.996;2022-09-09T14:13:14;97916.97;;;25.46;35.43
39357;BME280;25077;50.302;18.996;2022-09-09T14:16:17;97917.91;;;25.43;35.46
39357;BME280;25077;50.302;18.996;2022-09-09T14:19:18;97910.78;;;25.51;35.80
39357;BME280;25077;50.302;18.996;2022-09-09T14:22:22;97905.72;;;25.50;35.97
39357;BME280;25077;50.302;18.996;2022-09-09T14:25:24;97911.53;;;25.61;36.17
39357;BME280;25077;50.302;18.996;2022-09-09T14:28:26;97907.09;;;25.88;36.21
39357;BME280;25077;50.302;18.996;2022-09-09T14:35:57;97910.56;;;26.30;36.14
39357;BME280;25077;50.302;18.996;2022-09-09T14:39:01;97912.69;;;26.36;36.72
39357;BME280;25077;50.302;18.996;2022-09-09T14:42:04;97906.19;;;26.39;35.59
39357;BME280;25077;50.302;18.996;2022-09-09T14:45:07;97901.53;;;26.45;35.70
39357;BME280;25077;50.302;18.996;2022-09-09T14:52:37;97911.16;;;26.35;35.84
39357;BME280;25077;50.302;18.996;2022-09-09T14:55:40;97905.00;;;26.30;35.38
39357;BME280;25077;50.302;18.996;2022-09-09T14:58:43;97903.31;;;26.48;35.75
39357;BME280;25077;50.302;18.996;2022-09-09T15:01:45;97909.19;;;26.74;35.80
39357;BME280;25077;50.302;18.996;2022-09-09T15:04:47;97902.50;;;27.10;36.29
39357;BME280;25077;50.302;18.996;2022-09-09T15:07:50;97900.59;;;27.31;35.28
39357;BME280;25077;50.302;18.996;2022-09-09T15:10:59;97901.94;;;27.36;34.77
39357;BME280;25077;50.302;18.996;2022-09-09T15:14:02;97907.88;;;27.28;35.23
39357;BME280;25077;50.302;18.996;2022-09-09T15:21:33;97914.00;;;27.03;35.54
39357;BME280;25077;50.302;18.996;2022-09-09T15:24:35;97915.28;;;26.63;34.77
39357;BME280;25077;50.302;18.996;2022-09-09T15:27:38;97915.69;;;26.23;35.16
39357;BME280;25077;50.302;18.996;2022-09-09T15:30:41;97917.88;;;25.86;35.59
39357;BME280;25077;50.302;18.996;2022-09-09T15:33:49;97914.00;;;25.59;35.63
39357;BME280;25077;50.302;18.996;2022-09-09T15:36:51;97917.47;;;25.27;35.73
39357;BME280;25077;50.302;18.996;2022-09-09T15:39:54;97903.66;;;24.90;35.78
39357;BME280;25077;50.302;18.996;2022-09-09T15:43:00;97905.34;;;24.60;36.12
39357;BME280;25077;50.302;18.996;2022-09-09T15:50:30;97917.09;;;23.96;36.69
39357;BME280;25077;50.302;18.996;2022-09-09T15:53:32;97919.47;;;23.76;37.94
39357;BME280;25077;50.302;18.996;2022-09-09T15:56:34;97922.16;;;23.57;37.94
39357;BME280;25077;50.302;18.996;2022-09-09T15:59:39;97916.22;;;23.37;38.37
39357;BME280;25077;50.302;18.996;2022-09-09T16:07:09;97916.50;;;22.86;39.00
39357;BME280;25077;50.302;18.996;2022-09-09T16:10:11;97903.09;;;22.62;39.25
39357;BME280;25077;50.302;18.996;2022-09-09T16:13:14;97906.94;;;22.43;39.33
39357;BME280;25077;50.302;18.996;2022-09-09T16:21:53;97894.03;;;21.93;40.15
39357;BME280;25077;50.302;18.996;2022-09-09T16:24:55;97898.66;;;21.83;40.77
39357;BME280;25077;50.302;18.996;2022-09-09T16:27:57;97894.59;;;21.75;41.55
39357;BME280;25077;50.302;18.996;2022-09-09T16:31:03;97891.41;;;21.64;41.83
39357;BME280;25077;50.302;18.996;2022-09-09T16:34:06;97887.09;;;21.50;42.34
39357;BME280;25077;50.302;18.996;2022-09-09T16:37:09;97890.38;;;21.32;43.69
39357;BME280;25077;50.302;18.996;2022-09-09T16:40:12;97887.31;;;21.17;44.76
39357;BME280;25077;50.302;18.996;2022-09-09T16:43:14;97890.88;;;21.01;45.58
39357;BME280;25077;50.302;18.996;2022-09-09T16:50:44;97892.88;;;20.72;46.81
39357;BME280;25077;50.302;18.996;2022-09-09T16:53:47;97890.63;;;20.54;47.32
39357;BME280;25077;50.302;18.996;2022-09-09T16:56:49;97900.94;;;20.34;47.53
39357;BME280;25077;50.302;18.996;2022-09-09T16:59:51;97904.84;;;20.20;47.97
39357;BME280;25077;50.302;18.996;2022-09-09T17:07:21;97893.66;;;19.94;48.65
39357;BME280;25077;50.302;18.996;2022-09-09T17:10:25;97907.66;;;19.84;49.52
39357;BME280;25077;50.302;18.996;2022-09-09T17:13:27;97900.88;;;19.72;49.62
39357;BME280;25077;50.302;18.996;2022-09-09T17:22:05;97905.94;;;19.37;49.39
39357;BME280;25077;50.302;18.996;2022-09-09T17:25:08;97912.09;;;19.25;50.08
39357;BME280;25077;50.302;18.996;2022-09-09T17:28:11;97917.38;;;19.16;50.44
39357;BME280;25077;50.302;18.996;2022-09-09T17:31:15;97918.38;;;19.06;50.67
39357;BME280;25077;50.302;18.996;2022-09-09T17:34:18;97924.00;;;18.99;49.85
39357;BME280;25077;50.302;18.996;2022-09-09T17:37:20;97927.66;;;18.92;50.30
39357;BME280;25077;50.302;18.996;2022-09-09T17:40:22;97932.88;;;18.86;50.82
39357;BME280;25077;50.302;18.996;2022-09-09T17:43:25;97924.41;;;18.77;51.26
39357;BME280;25077;50.302;18.996;2022-09-09T17:50:57;97932.66;;;18.54;52.90
39357;BME280;25077;50.302;18.996;2022-09-09T17:54:02;97936.31;;;18.47;52.08
39357;BME280;25077;50.302;18.996;2022-09-09T17:57:05;97942.28;;;18.42;52.95
39357;BME280;25077;50.302;18.996;2022-09-09T18:00:09;97934.53;;;18.37;52.86
39357;BME280;25077;50.302;18.996;2022-09-09T18:07:41;97932.47;;;18.21;53.97
39357;BME280;25077;50.302;18.996;2022-09-09T18:10:51;97934.81;;;18.19;54.87
39357;BME280;25077;50.302;18.996;2022-09-09T18:13:57;97939.13;;;18.20;53.30
39357;BME280;25077;50.302;18.996;2022-09-09T18:22:38;97939.97;;;18.17;53.45
39357;BME280;25077;50.302;18.996;2022-09-09T18:25:40;97941.16;;;18.16;53.97
39357;BME280;25077;50.302;18.996;2022-09-09T18:28:47;97936.84;;;18.15;54.80
39357;BME280;25077;50.302;18.996;2022-09-09T18:31:49;97942.81;;;18.10;54.21
39357;BME280;25077;50.302;18.996;2022-09-09T18:34:52;97938.97;;;18.04;54.89
39357;BME280;25077;50.302;18.996;2022-09-09T18:37:57;97946.50;;;18.00;54.87
39357;BME280;25077;50.302;18.996;2022-09-09T18:40:59;97956.31;;;17.97;55.12
39357;BME280;25077;50.302;18.996;2022-09-09T18:44:05;97956.31;;;17.97;55.79
39357;BME280;25077;50.302;18.996;2022-09-09T18:51:35;97959.16;;;17.90;54.33
39357;BME280;25077;50.302;18.996;2022-09-09T18:54:38;97966.63;;;17.86;54.92
39357;BME280;25077;50.302;18.996;2022-09-09T18:57:43;97970.97;;;17.83;54.98
39357;BME280;25077;50.302;18.996;2022-09-09T19:00:45;97964.66;;;17.86;55.66
39357;BME280;25077;50.302;18.996;2022-09-09T19:08:15;97973.28;;;17.88;55.79
39357;BME280;25077;50.302;18.996;2022-09-09T19:11:20;97966.22;;;17.87;56.39
39357;BME280;25077;50.302;18.996;2022-09-09T19:14:23;97970.56;;;17.85;56.07
39357;BME280;25077;50.302;18.996;2022-09-09T19:17:26;97966.69;;;17.82;56.46
39357;BME280;25077;50.302;18.996;2022-09-09T19:20:29;97958.94;;;17.77;56.75
39357;BME280;25077;50.302;18.996;2022-09-09T19:23:31;97961.31;;;17.75;56.84
39357;BME280;25077;50.302;18.996;2022-09-09T19:26:37;97955.06;;;17.75;56.24
39357;BME280;25077;50.302;18.996;2022-09-09T19:29:40;97957.84;;;17.71;57.17
39357;BME280;25077;50.302;18.996;2022-09-09T19:37:10;97951.19;;;17.72;56.85
39357;BME280;25077;50.302;18.996;2022-09-09T19:40:13;97956.25;;;17.74;56.58
39357;BME280;25077;50.302;18.996;2022-09-09T19:43:16;97957.44;;;17.73;56.85
39357;BME280;25077;50.302;18.996;2022-09-09T19:46:18;97959.06;;;17.70;57.48